sensor_id;sensor_type;location;lat;lon;timestamp;P1;durP1;ratioP1;P2;durP2;ratioP2
62707;SDS011;48769;51.624;5.886;2023-03-01T00:01:11;18.40;;;10.57;;
62707;SDS011;48769;51.624;5.886;2023-03-01T00:03:47;11.88;;;9.77;;
62707;SDS011;48769;51.624;5.886;2023-03-01T00:06:12;16.45;;;11.10;;
62707;SDS011;48769;51.624;5.886;2023-03-01T00:08:38;14.25;;;10.10;;
62707;SDS011;48769;51.624;5.886;2023-03-01T00:11:05;12.68;;;9.82;;
62707;SDS011;48769;51.624;5.886;2023-03-01T00:13:43;14.25;;;9.88;;
62707;SDS011;48769;51.624;5.886;2023-03-01T00:16:15;16.88;;;10.32;;
62707;SDS011;48769;51.624;5.886;2023-03-01T00:18:43;13.20;;;9.57;;
62707;SDS011;48769;51.624;5.886;2023-03-01T00:21:09;14.93;;;9.35;;
62707;SDS011;48769;51.624;5.886;2023-03-01T00:23:35;12.80;;;8.93;;
62707;SDS011;48769;51.624;5.886;2023-03-01T00:26:01;15.38;;;9.82;;
62707;SDS011;48769;51.624;5.886;2023-03-01T00:28:26;11.73;;;9.40;;
62707;SDS011;48769;51.624;5.886;2023-03-01T00:30:52;12.77;;;9.52;;
62707;SDS011;48769;51.624;5.886;2023-03-01T00:33:17;14.57;;;9.27;;
62707;SDS011;48769;51.624;5.886;2023-03-01T00:35:43;13.30;;;9.68;;
62707;SDS011;48769;51.624;5.886;2023-03-01T00:38:09;15.82;;;10.50;;
62707;SDS011;48769;51.624;5.886;2023-03-01T00:40:35;16.92;;;10.73;;
62707;SDS011;48769;51.624;5.886;2023-03-01T00:43:01;14.13;;;10.45;;
62707;SDS011;48769;51.624;5.886;2023-03-01T00:45:27;17.83;;;10.80;;
62707;SDS011;48769;51.624;5.886;2023-03-01T00:47:53;32.08;;;13.32;;
62707;SDS011;48769;51.624;5.886;2023-03-01T00:50:19;12.77;;;9.48;;
62707;SDS011;48769;51.624;5.886;2023-03-01T00:52:45;15.20;;;10.18;;
62707;SDS011;48769;51.624;5.886;2023-03-01T00:55:11;16.83;;;10.52;;
62707;SDS011;48769;51.624;5.886;2023-03-01T00:57:36;13.73;;;10.55;;
62707;SDS011;48769;51.624;5.886;2023-03-01T01:00:03;17.83;;;9.90;;
62707;SDS011;48769;51.624;5.886;2023-03-01T01:02:29;13.23;;;10.07;;
62707;SDS011;48769;51.624;5.886;2023-03-01T01:04:57;17.50;;;10.52;;
62707;SDS011;48769;51.624;5.886;2023-03-01T01:07:22;14.32;;;10.82;;
62707;SDS011;48769;51.624;5.886;2023-03-01T01:09:48;17.83;;;11.40;;
62707;SDS011;48769;51.624;5.886;2023-03-01T01:12:13;16.50;;;10.60;;
62707;SDS011;48769;51.624;5.886;2023-03-01T01:14:39;14.95;;;10.85;;
62707;SDS011;48769;51.624;5.886;2023-03-01T01:17:04;18.23;;;11.48;;
62707;SDS011;48769;51.624;5.886;2023-03-01T01:19:29;15.85;;;10.65;;
62707;SDS011;48769;51.624;5.886;2023-03-01T01:21:55;16.83;;;10.48;;
62707;SDS011;48769;51.624;5.886;2023-03-01T01:24:20;16.48;;;10.50;;
62707;SDS011;48769;51.624;5.886;2023-03-01T01:26:46;14.90;;;10.93;;
62707;SDS011;48769;51.624;5.886;2023-03-01T01:29:11;14.13;;;9.90;;
62707;SDS011;48769;51.624;5.886;2023-03-01T01:31:38;17.60;;;10.13;;
62707;SDS011;48769;51.624;5.886;2023-03-01T01:34:06;13.80;;;10.20;;
62707;SDS011;48769;51.624;5.886;2023-03-01T01:36:32;16.27;;;10.50;;
62707;SDS011;48769;51.624;5.886;2023-03-01T01:38:59;14.05;;;10.15;;
62707;SDS011;48769;51.624;5.886;2023-03-01T01:41:25;14.95;;;10.88;;
62707;SDS011;48769;51.624;5.886;2023-03-01T01:46:37;15.77;;;10.90;;
62707;SDS011;48769;51.624;5.886;2023-03-01T01:49:07;14.90;;;10.90;;
62707;SDS011;48769;51.624;5.886;2023-03-01T01:51:43;14.55;;;10.90;;
62707;SDS011;48769;51.624;5.886;2023-03-01T01:54:21;17.70;;;11.45;;
62707;SDS011;48769;51.624;5.886;2023-03-01T01:56:58;18.15;;;11.27;;
62707;SDS011;48769;51.624;5.886;2023-03-01T01:59:28;19.20;;;11.20;;
62707;SDS011;48769;51.624;5.886;2023-03-01T02:01:56;17.40;;;11.48;;
62707;SDS011;48769;51.624;5.886;2023-03-01T02:04:28;16.67;;;11.23;;
62707;SDS011;48769;51.624;5.886;2023-03-01T02:07:07;17.88;;;11.43;;
62707;SDS011;48769;51.624;5.886;2023-03-01T02:09:38;18.40;;;11.70;;
62707;SDS011;48769;51.624;5.886;2023-03-01T02:12:03;15.88;;;10.75;;
62707;SDS011;48769;51.624;5.886;2023-03-01T02:14:29;16.77;;;10.38;;
62707;SDS011;48769;51.624;5.886;2023-03-01T02:16:54;15.93;;;10.73;;
62707;SDS011;48769;51.624;5.886;2023-03-01T02:19:27;19.17;;;10.75;;
62707;SDS011;48769;51.624;5.886;2023-03-01T02:22:06;14.35;;;10.75;;
62707;SDS011;48769;51.624;5.886;2023-03-01T02:27:38;18.13;;;11.32;;
62707;SDS011;48769;51.624;5.886;2023-03-01T02:30:13;21.80;;;11.43;;
62707;SDS011;48769;51.624;5.886;2023-03-01T02:32:40;17.65;;;11.60;;
62707;SDS011;48769;51.624;5.886;2023-03-01T02:35:08;19.10;;;11.38;;
62707;SDS011;48769;51.624;5.886;2023-03-01T02:37:36;22.05;;;11.30;;
62707;SDS011;48769;51.624;5.886;2023-03-01T02:40:04;16.58;;;11.40;;
62707;SDS011;48769;51.624;5.886;2023-03-01T02:42:40;16.15;;;12.13;;
62707;SDS011;48769;51.624;5.886;2023-03-01T02:45:12;17.38;;;10.73;;
62707;SDS011;48769;51.624;5.886;2023-03-01T02:47:37;18.05;;;10.95;;
62707;SDS011;48769;51.624;5.886;2023-03-01T02:50:09;19.05;;;11.45;;
62707;SDS011;48769;51.624;5.886;2023-03-01T02:52:45;18.77;;;11.35;;
62707;SDS011;48769;51.624;5.886;2023-03-01T02:55:18;18.42;;;11.15;;
62707;SDS011;48769;51.624;5.886;2023-03-01T02:57:44;17.88;;;11.52;;
62707;SDS011;48769;51.624;5.886;2023-03-01T03:00:12;17.00;;;10.55;;
62707;SDS011;48769;51.624;5.886;2023-03-01T03:02:47;21.85;;;11.70;;
62707;SDS011;48769;51.624;5.886;2023-03-01T03:05:15;18.88;;;10.23;;
62707;SDS011;48769;51.624;5.886;2023-03-01T03:07:46;18.98;;;11.85;;
62707;SDS011;48769;51.624;5.886;2023-03-01T03:10:16;19.02;;;11.25;;
62707;SDS011;48769;51.624;5.886;2023-03-01T03:12:51;18.95;;;11.00;;
62707;SDS011;48769;51.624;5.886;2023-03-01T03:15:17;13.57;;;10.20;;
62707;SDS011;48769;51.624;5.886;2023-03-01T03:17:45;14.05;;;10.25;;
62707;SDS011;48769;51.624;5.886;2023-03-01T03:20:11;17.52;;;11.35;;
62707;SDS011;48769;51.624;5.886;2023-03-01T03:22:43;17.67;;;10.70;;
62707;SDS011;48769;51.624;5.886;2023-03-01T03:25:09;18.23;;;11.73;;
62707;SDS011;48769;51.624;5.886;2023-03-01T03:27:38;17.67;;;12.27;;
62707;SDS011;48769;51.624;5.886;2023-03-01T03:30:06;18.73;;;12.48;;
62707;SDS011;48769;51.624;5.886;2023-03-01T03:32:35;18.08;;;11.10;;
62707;SDS011;48769;51.624;5.886;2023-03-01T03:35:02;19.80;;;11.73;;
62707;SDS011;48769;51.624;5.886;2023-03-01T03:37:34;17.83;;;12.52;;
62707;SDS011;48769;51.624;5.886;2023-03-01T03:40:27;18.63;;;11.13;;
62707;SDS011;48769;51.624;5.886;2023-03-01T03:42:54;17.98;;;11.98;;
62707;SDS011;48769;51.624;5.886;2023-03-01T03:45:20;19.25;;;12.48;;
62707;SDS011;48769;51.624;5.886;2023-03-01T03:47:45;20.30;;;12.55;;
62707;SDS011;48769;51.624;5.886;2023-03-01T03:50:12;17.60;;;12.07;;
62707;SDS011;48769;51.624;5.886;2023-03-01T03:52:38;19.83;;;12.25;;
62707;SDS011;48769;51.624;5.886;2023-03-01T03:55:05;18.05;;;12.75;;
62707;SDS011;48769;51.624;5.886;2023-03-01T03:57:41;19.17;;;12.93;;
62707;SDS011;48769;51.624;5.886;2023-03-01T04:00:08;22.13;;;12.68;;
62707;SDS011;48769;51.624;5.886;2023-03-01T04:02:44;17.17;;;11.73;;
62707;SDS011;48769;51.624;5.886;2023-03-01T04:05:11;18.55;;;12.38;;
62707;SDS011;48769;51.624;5.886;2023-03-01T04:07:37;17.52;;;12.68;;
62707;SDS011;48769;51.624;5.886;2023-03-01T04:10:03;19.08;;;13.43;;
62707;SDS011;48769;51.624;5.886;2023-03-01T04:12:31;18.73;;;13.07;;
62707;SDS011;48769;51.624;5.886;2023-03-01T04:14:59;19.10;;;11.82;;
62707;SDS011;48769;51.624;5.886;2023-03-01T04:17:24;18.83;;;12.35;;
62707;SDS011;48769;51.624;5.886;2023-03-01T04:19:50;18.92;;;12.50;;
62707;SDS011;48769;51.624;5.886;2023-03-01T04:22:15;22.73;;;13.15;;
62707;SDS011;48769;51.624;5.886;2023-03-01T04:24:43;21.48;;;13.55;;
62707;SDS011;48769;51.624;5.886;2023-03-01T04:27:09;17.83;;;11.80;;
62707;SDS011;48769;51.624;5.886;2023-03-01T04:29:34;18.17;;;12.65;;
62707;SDS011;48769;51.624;5.886;2023-03-01T04:32:00;23.83;;;13.05;;
62707;SDS011;48769;51.624;5.886;2023-03-01T04:34:25;20.65;;;13.32;;
62707;SDS011;48769;51.624;5.886;2023-03-01T04:36:53;18.35;;;12.20;;
62707;SDS011;48769;51.624;5.886;2023-03-01T04:39:18;19.83;;;13.48;;
62707;SDS011;48769;51.624;5.886;2023-03-01T04:41:44;17.40;;;12.02;;
62707;SDS011;48769;51.624;5.886;2023-03-01T04:44:09;16.58;;;11.93;;
62707;SDS011;48769;51.624;5.886;2023-03-01T04:46:35;24.13;;;14.05;;
62707;SDS011;48769;51.624;5.886;2023-03-01T04:49:01;19.55;;;13.50;;
62707;SDS011;48769;51.624;5.886;2023-03-01T04:51:28;29.88;;;13.02;;
62707;SDS011;48769;51.624;5.886;2023-03-01T04:53:53;19.17;;;13.07;;
62707;SDS011;48769;51.624;5.886;2023-03-01T04:56:19;19.58;;;14.02;;
62707;SDS011;48769;51.624;5.886;2023-03-01T04:58:44;24.25;;;13.38;;
62707;SDS011;48769;51.624;5.886;2023-03-01T05:01:11;18.23;;;12.98;;
62707;SDS011;48769;51.624;5.886;2023-03-01T05:03:41;17.70;;;12.93;;
62707;SDS011;48769;51.624;5.886;2023-03-01T05:06:14;20.25;;;12.63;;
62707;SDS011;48769;51.624;5.886;2023-03-01T05:08:41;20.58;;;13.95;;
62707;SDS011;48769;51.624;5.886;2023-03-01T05:11:07;30.88;;;13.80;;
62707;SDS011;48769;51.624;5.886;2023-03-01T05:13:34;20.63;;;13.13;;
62707;SDS011;48769;51.624;5.886;2023-03-01T05:16:00;19.02;;;12.82;;
62707;SDS011;48769;51.624;5.886;2023-03-01T05:18:27;23.08;;;13.48;;
62707;SDS011;48769;51.624;5.886;2023-03-01T05:20:55;25.23;;;13.45;;
62707;SDS011;48769;51.624;5.886;2023-03-01T05:23:26;19.52;;;12.57;;
62707;SDS011;48769;51.624;5.886;2023-03-01T05:25:51;20.70;;;14.13;;
62707;SDS011;48769;51.624;5.886;2023-03-01T05:28:17;19.85;;;12.48;;
62707;SDS011;48769;51.624;5.886;2023-03-01T05:30:44;21.90;;;12.77;;
62707;SDS011;48769;51.624;5.886;2023-03-01T05:33:10;20.05;;;13.10;;
62707;SDS011;48769;51.624;5.886;2023-03-01T05:35:38;22.20;;;14.48;;
62707;SDS011;48769;51.624;5.886;2023-03-01T05:38:06;22.85;;;15.00;;
62707;SDS011;48769;51.624;5.886;2023-03-01T05:40:32;22.80;;;14.18;;
62707;SDS011;48769;51.624;5.886;2023-03-01T05:42:58;20.73;;;14.02;;
62707;SDS011;48769;51.624;5.886;2023-03-01T05:45:24;23.35;;;14.05;;
62707;SDS011;48769;51.624;5.886;2023-03-01T05:47:50;20.52;;;14.43;;
62707;SDS011;48769;51.624;5.886;2023-03-01T05:50:18;23.58;;;13.77;;
62707;SDS011;48769;51.624;5.886;2023-03-01T05:52:48;25.10;;;15.10;;
62707;SDS011;48769;51.624;5.886;2023-03-01T05:55:19;24.05;;;14.43;;
62707;SDS011;48769;51.624;5.886;2023-03-01T05:57:46;21.15;;;15.00;;
62707;SDS011;48769;51.624;5.886;2023-03-01T06:00:12;27.90;;;18.20;;
62707;SDS011;48769;51.624;5.886;2023-03-01T06:02:39;23.20;;;12.98;;
62707;SDS011;48769;51.624;5.886;2023-03-01T06:05:05;24.73;;;15.25;;
62707;SDS011;48769;51.624;5.886;2023-03-01T06:07:32;27.23;;;14.90;;
62707;SDS011;48769;51.624;5.886;2023-03-01T06:09:58;25.90;;;14.82;;
62707;SDS011;48769;51.624;5.886;2023-03-01T06:12:23;26.45;;;15.65;;
62707;SDS011;48769;51.624;5.886;2023-03-01T06:14:48;24.77;;;13.70;;
62707;SDS011;48769;51.624;5.886;2023-03-01T06:17:14;21.55;;;15.02;;
62707;SDS011;48769;51.624;5.886;2023-03-01T06:19:39;24.00;;;15.05;;
62707;SDS011;48769;51.624;5.886;2023-03-01T06:22:05;29.10;;;15.85;;
62707;SDS011;48769;51.624;5.886;2023-03-01T06:24:30;28.20;;;14.70;;
62707;SDS011;48769;51.624;5.886;2023-03-01T06:26:56;19.75;;;14.32;;
62707;SDS011;48769;51.624;5.886;2023-03-01T06:29:21;26.35;;;16.77;;
62707;SDS011;48769;51.624;5.886;2023-03-01T06:31:47;27.30;;;15.25;;
62707;SDS011;48769;51.624;5.886;2023-03-01T06:34:14;23.38;;;14.35;;
62707;SDS011;48769;51.624;5.886;2023-03-01T06:36:39;26.33;;;15.48;;
62707;SDS011;48769;51.624;5.886;2023-03-01T06:39:05;26.77;;;16.85;;
62707;SDS011;48769;51.624;5.886;2023-03-01T06:41:31;24.52;;;16.33;;
62707;SDS011;48769;51.624;5.886;2023-03-01T06:43:58;27.98;;;16.27;;
62707;SDS011;48769;51.624;5.886;2023-03-01T06:46:24;24.38;;;15.27;;
62707;SDS011;48769;51.624;5.886;2023-03-01T06:48:49;27.75;;;15.02;;
62707;SDS011;48769;51.624;5.886;2023-03-01T06:51:14;27.02;;;15.00;;
62707;SDS011;48769;51.624;5.886;2023-03-01T06:53:40;23.50;;;15.63;;
62707;SDS011;48769;51.624;5.886;2023-03-01T06:56:05;22.17;;;14.98;;
62707;SDS011;48769;51.624;5.886;2023-03-01T06:58:31;24.42;;;14.88;;
62707;SDS011;48769;51.624;5.886;2023-03-01T07:00:56;26.58;;;16.20;;
62707;SDS011;48769;51.624;5.886;2023-03-01T07:03:21;25.30;;;16.35;;
62707;SDS011;48769;51.624;5.886;2023-03-01T07:05:50;26.60;;;15.10;;
62707;SDS011;48769;51.624;5.886;2023-03-01T07:08:19;25.30;;;14.95;;
62707;SDS011;48769;51.624;5.886;2023-03-01T07:10:44;22.77;;;15.13;;
62707;SDS011;48769;51.624;5.886;2023-03-01T07:13:10;31.52;;;15.85;;
62707;SDS011;48769;51.624;5.886;2023-03-01T07:15:35;22.58;;;15.85;;
62707;SDS011;48769;51.624;5.886;2023-03-01T07:18:00;25.77;;;15.30;;
62707;SDS011;48769;51.624;5.886;2023-03-01T07:20:26;29.27;;;16.15;;
62707;SDS011;48769;51.624;5.886;2023-03-01T07:22:51;23.38;;;14.70;;
62707;SDS011;48769;51.624;5.886;2023-03-01T07:25:17;26.45;;;15.35;;
62707;SDS011;48769;51.624;5.886;2023-03-01T07:27:42;27.38;;;14.57;;
62707;SDS011;48769;51.624;5.886;2023-03-01T07:30:08;28.95;;;15.73;;
62707;SDS011;48769;51.624;5.886;2023-03-01T07:32:34;28.70;;;15.38;;
62707;SDS011;48769;51.624;5.886;2023-03-01T07:34:59;23.65;;;15.35;;
62707;SDS011;48769;51.624;5.886;2023-03-01T07:37:25;21.63;;;14.43;;
62707;SDS011;48769;51.624;5.886;2023-03-01T07:39:50;20.83;;;14.05;;
62707;SDS011;48769;51.624;5.886;2023-03-01T07:42:15;23.60;;;13.95;;
62707;SDS011;48769;51.624;5.886;2023-03-01T07:44:41;23.15;;;14.57;;
62707;SDS011;48769;51.624;5.886;2023-03-01T07:47:06;19.52;;;14.32;;
62707;SDS011;48769;51.624;5.886;2023-03-01T07:49:31;21.55;;;13.65;;
62707;SDS011;48769;51.624;5.886;2023-03-01T07:51:57;17.35;;;12.45;;
62707;SDS011;48769;51.624;5.886;2023-03-01T07:54:22;18.17;;;13.32;;
62707;SDS011;48769;51.624;5.886;2023-03-01T07:56:47;17.25;;;13.40;;
62707;SDS011;48769;51.624;5.886;2023-03-01T07:59:13;17.83;;;12.65;;
62707;SDS011;48769;51.624;5.886;2023-03-01T08:01:38;18.92;;;14.13;;
62707;SDS011;48769;51.624;5.886;2023-03-01T08:04:04;16.63;;;13.65;;
62707;SDS011;48769;51.624;5.886;2023-03-01T08:06:33;16.50;;;13.25;;
62707;SDS011;48769;51.624;5.886;2023-03-01T08:08:58;21.70;;;13.25;;
62707;SDS011;48769;51.624;5.886;2023-03-01T08:11:24;16.80;;;13.80;;
62707;SDS011;48769;51.624;5.886;2023-03-01T08:13:49;18.10;;;13.60;;
62707;SDS011;48769;51.624;5.886;2023-03-01T08:16:15;15.98;;;13.45;;
62707;SDS011;48769;51.624;5.886;2023-03-01T08:18:41;16.83;;;13.02;;
62707;SDS011;48769;51.624;5.886;2023-03-01T08:21:08;17.23;;;12.40;;
62707;SDS011;48769;51.624;5.886;2023-03-01T08:23:36;18.38;;;12.18;;
62707;SDS011;48769;51.624;5.886;2023-03-01T08:26:06;14.70;;;12.20;;
62707;SDS011;48769;51.624;5.886;2023-03-01T08:28:37;14.98;;;11.65;;
62707;SDS011;48769;51.624;5.886;2023-03-01T08:31:02;16.33;;;11.90;;
62707;SDS011;48769;51.624;5.886;2023-03-01T08:33:37;14.90;;;11.52;;
62707;SDS011;48769;51.624;5.886;2023-03-01T08:36:05;15.90;;;11.13;;
62707;SDS011;48769;51.624;5.886;2023-03-01T08:38:31;14.50;;;11.13;;
62707;SDS011;48769;51.624;5.886;2023-03-01T08:40:59;14.00;;;10.82;;
62707;SDS011;48769;51.624;5.886;2023-03-01T08:43:25;15.95;;;11.60;;
62707;SDS011;48769;51.624;5.886;2023-03-01T08:45:51;14.85;;;10.60;;
62707;SDS011;48769;51.624;5.886;2023-03-01T08:48:16;14.43;;;10.88;;
62707;SDS011;48769;51.624;5.886;2023-03-01T08:50:41;13.85;;;9.77;;
62707;SDS011;48769;51.624;5.886;2023-03-01T08:53:07;15.25;;;9.07;;
62707;SDS011;48769;51.624;5.886;2023-03-01T08:55:32;12.55;;;10.15;;
62707;SDS011;48769;51.624;5.886;2023-03-01T08:57:57;11.57;;;9.48;;
62707;SDS011;48769;51.624;5.886;2023-03-01T09:00:23;12.10;;;9.38;;
62707;SDS011;48769;51.624;5.886;2023-03-01T09:02:49;13.48;;;9.32;;
62707;SDS011;48769;51.624;5.886;2023-03-01T09:05:15;14.13;;;9.65;;
62707;SDS011;48769;51.624;5.886;2023-03-01T09:07:40;10.93;;;8.63;;
62707;SDS011;48769;51.624;5.886;2023-03-01T09:10:05;16.70;;;10.07;;
62707;SDS011;48769;51.624;5.886;2023-03-01T09:12:34;13.55;;;9.82;;
62707;SDS011;48769;51.624;5.886;2023-03-01T09:14:59;10.52;;;8.40;;
62707;SDS011;48769;51.624;5.886;2023-03-01T09:17:25;10.82;;;9.35;;
62707;SDS011;48769;51.624;5.886;2023-03-01T09:19:50;11.20;;;8.20;;
62707;SDS011;48769;51.624;5.886;2023-03-01T09:22:15;11.68;;;9.23;;
62707;SDS011;48769;51.624;5.886;2023-03-01T09:24:40;10.50;;;8.98;;
62707;SDS011;48769;51.624;5.886;2023-03-01T09:27:06;10.52;;;9.15;;
62707;SDS011;48769;51.624;5.886;2023-03-01T09:29:36;10.75;;;9.35;;
62707;SDS011;48769;51.624;5.886;2023-03-01T09:32:02;13.77;;;10.35;;
62707;SDS011;48769;51.624;5.886;2023-03-01T09:34:27;14.90;;;9.85;;
62707;SDS011;48769;51.624;5.886;2023-03-01T09:36:53;11.60;;;10.15;;
62707;SDS011;48769;51.624;5.886;2023-03-01T09:39:18;12.52;;;10.32;;
62707;SDS011;48769;51.624;5.886;2023-03-01T09:45:15;12.10;;;9.85;;
62707;SDS011;48769;51.624;5.886;2023-03-01T09:47:20;14.63;;;10.68;;
62707;SDS011;48769;51.624;5.886;2023-03-01T09:50:24;12.63;;;10.05;;
62707;SDS011;48769;51.624;5.886;2023-03-01T09:55:31;17.02;;;12.10;;
62707;SDS011;48769;51.624;5.886;2023-03-01T09:58:11;16.25;;;12.63;;
62707;SDS011;48769;51.624;5.886;2023-03-01T10:00:57;14.02;;;10.93;;
62707;SDS011;48769;51.624;5.886;2023-03-01T10:03:28;14.35;;;11.13;;
62707;SDS011;48769;51.624;5.886;2023-03-01T10:06:06;14.27;;;11.75;;
62707;SDS011;48769;51.624;5.886;2023-03-01T10:11:14;13.77;;;11.75;;
62707;SDS011;48769;51.624;5.886;2023-03-01T10:19:36;13.30;;;10.80;;
62707;SDS011;48769;51.624;5.886;2023-03-01T10:22:20;14.15;;;10.82;;
62707;SDS011;48769;51.624;5.886;2023-03-01T10:24:50;12.35;;;10.30;;
62707;SDS011;48769;51.624;5.886;2023-03-01T10:32:18;12.27;;;10.50;;
62707;SDS011;48769;51.624;5.886;2023-03-01T10:34:46;15.32;;;10.82;;
62707;SDS011;48769;51.624;5.886;2023-03-01T10:37:19;14.18;;;10.77;;
62707;SDS011;48769;51.624;5.886;2023-03-01T10:39:57;14.75;;;10.57;;
62707;SDS011;48769;51.624;5.886;2023-03-01T10:42:29;14.23;;;10.02;;
62707;SDS011;48769;51.624;5.886;2023-03-01T10:44:58;16.40;;;10.38;;
62707;SDS011;48769;51.624;5.886;2023-03-01T10:47:39;13.80;;;9.93;;
62707;SDS011;48769;51.624;5.886;2023-03-01T10:50:05;11.98;;;9.70;;
62707;SDS011;48769;51.624;5.886;2023-03-01T10:52:54;12.52;;;10.15;;
62707;SDS011;48769;51.624;5.886;2023-03-01T10:55:36;12.32;;;9.52;;
62707;SDS011;48769;51.624;5.886;2023-03-01T10:58:08;12.45;;;9.73;;
62707;SDS011;48769;51.624;5.886;2023-03-01T11:00:53;12.85;;;10.23;;
62707;SDS011;48769;51.624;5.886;2023-03-01T11:03:45;12.50;;;9.48;;
62707;SDS011;48769;51.624;5.886;2023-03-01T11:11:16;13.52;;;9.63;;
62707;SDS011;48769;51.624;5.886;2023-03-01T11:14:00;12.30;;;10.02;;
62707;SDS011;48769;51.624;5.886;2023-03-01T11:16:37;14.25;;;10.98;;
62707;SDS011;48769;51.624;5.886;2023-03-01T11:21:36;13.05;;;9.50;;
62707;SDS011;48769;51.624;5.886;2023-03-01T11:24:11;18.50;;;10.82;;
62707;SDS011;48769;51.624;5.886;2023-03-01T11:26:40;13.52;;;9.93;;
62707;SDS011;48769;51.624;5.886;2023-03-01T11:29:13;13.90;;;10.30;;
62707;SDS011;48769;51.624;5.886;2023-03-01T11:32:04;13.73;;;10.70;;
62707;SDS011;48769;51.624;5.886;2023-03-01T11:34:48;13.18;;;9.75;;
62707;SDS011;48769;51.624;5.886;2023-03-01T11:37:26;11.00;;;9.80;;
62707;SDS011;48769;51.624;5.886;2023-03-01T11:48:25;13.77;;;9.82;;
62707;SDS011;48769;51.624;5.886;2023-03-01T11:50:54;13.43;;;9.95;;
62707;SDS011;48769;51.624;5.886;2023-03-01T11:58:45;12.15;;;9.50;;
62707;SDS011;48769;51.624;5.886;2023-03-01T12:06:48;11.77;;;8.93;;
62707;SDS011;48769;51.624;5.886;2023-03-01T12:14:47;13.48;;;9.65;;
62707;SDS011;48769;51.624;5.886;2023-03-01T12:17:23;13.05;;;9.50;;
62707;SDS011;48769;51.624;5.886;2023-03-01T12:20:05;13.13;;;9.45;;
62707;SDS011;48769;51.624;5.886;2023-03-01T12:22:52;13.85;;;10.25;;
62707;SDS011;48769;51.624;5.886;2023-03-01T12:28:08;12.15;;;9.57;;
62707;SDS011;48769;51.624;5.886;2023-03-01T12:30:57;11.60;;;8.57;;
62707;SDS011;48769;51.624;5.886;2023-03-01T12:34:01;11.40;;;9.30;;
62707;SDS011;48769;51.624;5.886;2023-03-01T12:39:42;12.60;;;9.93;;
62707;SDS011;48769;51.624;5.886;2023-03-01T12:45:48;12.27;;;9.30;;
62707;SDS011;48769;51.624;5.886;2023-03-01T12:48:32;11.20;;;8.90;;
62707;SDS011;48769;51.624;5.886;2023-03-01T12:51:10;14.40;;;9.55;;
62707;SDS011;48769;51.624;5.886;2023-03-01T12:53:44;11.18;;;9.32;;
62707;SDS011;48769;51.624;5.886;2023-03-01T12:56:14;11.40;;;9.25;;
62707;SDS011;48769;51.624;5.886;2023-03-01T13:01:55;13.10;;;10.02;;
62707;SDS011;48769;51.624;5.886;2023-03-01T13:04:35;14.68;;;9.73;;
62707;SDS011;48769;51.624;5.886;2023-03-01T13:12:45;12.55;;;9.70;;
62707;SDS011;48769;51.624;5.886;2023-03-01T13:20:19;11.65;;;10.30;;
62707;SDS011;48769;51.624;5.886;2023-03-01T13:22:47;13.38;;;10.40;;
62707;SDS011;48769;51.624;5.886;2023-03-01T13:25:26;14.52;;;10.57;;
62707;SDS011;48769;51.624;5.886;2023-03-01T13:27:51;14.02;;;9.07;;
62707;SDS011;48769;51.624;5.886;2023-03-01T13:30:56;11.63;;;9.43;;
62707;SDS011;48769;51.624;5.886;2023-03-01T13:35:57;12.88;;;9.70;;
62707;SDS011;48769;51.624;5.886;2023-03-01T13:41:03;12.18;;;8.43;;
62707;SDS011;48769;51.624;5.886;2023-03-01T13:43:31;14.02;;;9.38;;
62707;SDS011;48769;51.624;5.886;2023-03-01T13:45:58;12.80;;;9.68;;
62707;SDS011;48769;51.624;5.886;2023-03-01T13:48:26;13.65;;;9.52;;
62707;SDS011;48769;51.624;5.886;2023-03-01T13:50:56;12.13;;;9.30;;
62707;SDS011;48769;51.624;5.886;2023-03-01T13:53:26;12.88;;;9.90;;
62707;SDS011;48769;51.624;5.886;2023-03-01T13:55:58;12.13;;;10.35;;
62707;SDS011;48769;51.624;5.886;2023-03-01T13:58:31;11.65;;;9.68;;
62707;SDS011;48769;51.624;5.886;2023-03-01T14:01:06;12.25;;;9.15;;
62707;SDS011;48769;51.624;5.886;2023-03-01T14:03:34;11.93;;;10.15;;
62707;SDS011;48769;51.624;5.886;2023-03-01T14:06:13;13.15;;;10.32;;
62707;SDS011;48769;51.624;5.886;2023-03-01T14:08:44;12.00;;;10.38;;
62707;SDS011;48769;51.624;5.886;2023-03-01T14:19:20;14.05;;;10.10;;
62707;SDS011;48769;51.624;5.886;2023-03-01T14:22:02;16.20;;;10.15;;
62707;SDS011;48769;51.624;5.886;2023-03-01T14:24:31;15.82;;;10.48;;
62707;SDS011;48769;51.624;5.886;2023-03-01T14:27:03;14.45;;;10.45;;
62707;SDS011;48769;51.624;5.886;2023-03-01T14:29:35;14.35;;;10.98;;
62707;SDS011;48769;51.624;5.886;2023-03-01T14:32:19;16.08;;;11.07;;
62707;SDS011;48769;51.624;5.886;2023-03-01T14:34:47;12.35;;;9.85;;
62707;SDS011;48769;51.624;5.886;2023-03-01T14:37:19;12.63;;;9.90;;
62707;SDS011;48769;51.624;5.886;2023-03-01T14:39:44;16.50;;;10.95;;
62707;SDS011;48769;51.624;5.886;2023-03-01T14:42:10;13.43;;;10.52;;
62707;SDS011;48769;51.624;5.886;2023-03-01T14:44:38;15.13;;;9.93;;
62707;SDS011;48769;51.624;5.886;2023-03-01T14:47:10;16.77;;;11.27;;
62707;SDS011;48769;51.624;5.886;2023-03-01T14:49:39;15.30;;;10.52;;
62707;SDS011;48769;51.624;5.886;2023-03-01T14:52:06;14.32;;;10.77;;
62707;SDS011;48769;51.624;5.886;2023-03-01T14:54:43;14.55;;;11.15;;
62707;SDS011;48769;51.624;5.886;2023-03-01T14:57:19;14.55;;;10.85;;
62707;SDS011;48769;51.624;5.886;2023-03-01T14:59:46;14.65;;;10.23;;
62707;SDS011;48769;51.624;5.886;2023-03-01T15:02:17;14.73;;;11.05;;
62707;SDS011;48769;51.624;5.886;2023-03-01T15:04:45;14.60;;;11.23;;
62707;SDS011;48769;51.624;5.886;2023-03-01T15:07:13;18.38;;;11.00;;
62707;SDS011;48769;51.624;5.886;2023-03-01T15:09:39;15.48;;;11.77;;
62707;SDS011;48769;51.624;5.886;2023-03-01T15:14:53;16.35;;;11.07;;
62707;SDS011;48769;51.624;5.886;2023-03-01T15:17:32;15.80;;;11.70;;
62707;SDS011;48769;51.624;5.886;2023-03-01T15:19:58;15.65;;;11.50;;
62707;SDS011;48769;51.624;5.886;2023-03-01T15:22:24;17.63;;;11.65;;
62707;SDS011;48769;51.624;5.886;2023-03-01T15:24:51;17.08;;;12.43;;
62707;SDS011;48769;51.624;5.886;2023-03-01T15:27:22;15.02;;;10.98;;
62707;SDS011;48769;51.624;5.886;2023-03-01T15:29:49;17.63;;;11.95;;
62707;SDS011;48769;51.624;5.886;2023-03-01T15:32:34;18.70;;;11.38;;
62707;SDS011;48769;51.624;5.886;2023-03-01T15:38:22;19.15;;;11.98;;
62707;SDS011;48769;51.624;5.886;2023-03-01T15:40:49;18.77;;;11.23;;
62707;SDS011;48769;51.624;5.886;2023-03-01T15:46:05;16.77;;;12.18;;
62707;SDS011;48769;51.624;5.886;2023-03-01T15:49:03;14.90;;;10.82;;
62707;SDS011;48769;51.624;5.886;2023-03-01T15:51:49;16.80;;;11.32;;
62707;SDS011;48769;51.624;5.886;2023-03-01T15:54:18;17.88;;;11.00;;
62707;SDS011;48769;51.624;5.886;2023-03-01T15:56:46;15.80;;;10.85;;
62707;SDS011;48769;51.624;5.886;2023-03-01T15:59:12;21.15;;;11.57;;
62707;SDS011;48769;51.624;5.886;2023-03-01T16:01:39;15.93;;;11.18;;
62707;SDS011;48769;51.624;5.886;2023-03-01T16:04:09;15.05;;;11.10;;
62707;SDS011;48769;51.624;5.886;2023-03-01T16:06:36;17.80;;;11.75;;
62707;SDS011;48769;51.624;5.886;2023-03-01T16:09:04;20.15;;;12.20;;
62707;SDS011;48769;51.624;5.886;2023-03-01T16:11:30;20.58;;;11.05;;
62707;SDS011;48769;51.624;5.886;2023-03-01T16:13:57;15.45;;;11.40;;
62707;SDS011;48769;51.624;5.886;2023-03-01T16:16:22;15.90;;;11.73;;
62707;SDS011;48769;51.624;5.886;2023-03-01T16:18:48;15.55;;;11.20;;